Time;durP1;ratioP1;P1;durP2;ratioP2;P2;SDS_P1;SDS_P2;PMS_P1;PMS_P2;Temp;Humidity;BMP_temperature;BMP_pressure;BME280_temperature;BME280_humidity;BME280_pressure;Samples;Min_cycle;Max_cycle;Signal;HPM_P1;HPM_P2
2023/08/10 00:01:48;;;;;;;6.50;3.83;;;14.50;84.90;;;;;;5094429;28;20079;-80
2023/08/10 00:04:14;;;;;;;7.10;3.78;;;14.50;85.00;;;;;;5060627;28;20444;-80
2023/08/10 00:06:40;;;;;;;8.40;3.78;;;14.40;85.10;;;;;;5077220;28;20047;-82
2023/08/10 00:09:07;;;;;;;7.72;4.47;;;14.50;85.10;;;;;;5077536;28;20035;-81
2023/08/10 00:11:34;;;;;;;6.18;3.90;;;14.50;85.10;;;;;;5077107;28;20085;-81
2023/08/10 00:14:00;;;;;;;6.70;3.65;;;14.40;85.30;;;;;;5094239;28;20040;-81
2023/08/10 00:16:26;;;;;;;5.60;4.07;;;14.40;85.20;;;;;;5077401;28;20385;-80
2023/08/10 00:18:51;;;;;;;9.10;4.70;;;14.40;85.10;;;;;;5060421;28;20476;-80
2023/08/10 00:21:17;;;;;;;8.13;4.07;;;14.40;85.20;;;;;;5093777;28;20044;-81
2023/08/10 00:23:43;;;;;;;6.40;3.83;;;14.50;85.20;;;;;;5060382;28;20096;-81
2023/08/10 00:26:09;;;;;;;8.23;3.50;;;14.40;85.20;;;;;;5076823;28;20040;-82
2023/08/10 00:28:35;;;;;;;5.72;4.18;;;14.40;85.30;;;;;;5076912;28;20044;-81
2023/08/10 00:31:00;;;;;;;10.48;3.80;;;14.30;85.40;;;;;;5093482;28;20153;-81
2023/08/10 00:33:26;;;;;;;5.80;3.70;;;14.40;85.40;;;;;;5076843;28;20130;-79
2023/08/10 00:35:52;;;;;;;8.63;3.80;;;14.30;85.40;;;;;;5093739;28;20043;-81
2023/08/10 00:38:17;;;;;;;8.50;4.20;;;14.40;85.50;;;;;;5093636;28;20100;-80
2023/08/10 00:40:43;;;;;;;7.93;3.55;;;14.40;85.40;;;;;;5094057;28;20052;-81
2023/08/10 00:43:10;;;;;;;8.60;3.63;;;14.40;85.60;;;;;;5060501;28;20075;-81
2023/08/10 00:45:37;;;;;;;10.40;4.53;;;14.30;85.60;;;;;;5061236;28;20040;-81
2023/08/10 00:48:04;;;;;;;8.35;3.42;;;14.30;85.60;;;;;;5093743;28;20434;-81
2023/08/10 00:50:30;;;;;;;8.70;3.60;;;14.30;85.60;;;;;;5093808;28;20050;-83
2023/08/10 00:52:56;;;;;;;10.05;3.60;;;14.30;85.70;;;;;;5076865;28;20051;-81
2023/08/10 00:55:22;;;;;;;6.38;3.88;;;14.30;85.70;;;;;;5094222;28;20407;-80
2023/08/10 00:57:48;;;;;;;8.38;3.63;;;14.30;85.80;;;;;;5082667;28;20067;-81
2023/08/10 01:00:14;;;;;;;5.55;3.67;;;14.20;85.90;;;;;;5082479;28;20043;-81
2023/08/10 01:02:40;;;;;;;6.00;3.80;;;14.10;85.90;;;;;;5100178;28;20036;-81
2023/08/10 01:05:11;;;;;;;9.65;3.72;;;14.10;86.00;;;;;;5119509;28;20039;-82
2023/08/10 01:07:50;;;;;;;7.85;3.40;;;14.00;86.10;;;;;;5118596;28;20040;-80
2023/08/10 01:10:34;;;;;;;5.03;3.25;;;14.00;86.20;;;;;;5119407;28;20035;-80
2023/08/10 01:13:11;;;;;;;5.75;3.47;;;14.00;86.30;;;;;;5119514;28;20029;-81
2023/08/10 01:15:47;;;;;;;7.97;3.45;;;14.00;86.30;;;;;;5102540;28;20047;-81
2023/08/10 01:18:17;;;;;;;5.95;3.30;;;13.90;86.40;;;;;;5102461;28;20020;-81
2023/08/10 01:20:45;;;;;;;6.65;3.17;;;13.90;86.50;;;;;;5084665;28;20404;-80
2023/08/10 01:23:34;;;;;;;7.97;4.10;;;13.80;86.50;;;;;;5095825;28;20047;-81
2023/08/10 01:26:00;;;;;;;8.15;3.10;;;13.80;86.50;;;;;;5096412;28;20040;-81
2023/08/10 01:28:27;;;;;;;8.10;3.22;;;13.70;86.60;;;;;;5079029;28;20052;-81
2023/08/10 01:30:53;;;;;;;8.13;3.20;;;13.70;86.70;;;;;;5095081;28;20067;-81
2023/08/10 01:33:19;;;;;;;5.05;3.20;;;13.60;86.70;;;;;;5093100;28;20036;-80
2023/08/10 01:35:45;;;;;;;4.47;2.65;;;13.60;86.70;;;;;;5075807;28;20446;-80
2023/08/10 01:38:11;;;;;;;6.95;3.45;;;13.60;86.80;;;;;;5075504;28;20043;-81
2023/08/10 01:40:38;;;;;;;7.78;3.60;;;13.50;86.80;;;;;;5058859;28;20132;-80
2023/08/10 01:43:04;;;;;;;5.80;3.30;;;13.50;86.90;;;;;;5092294;28;20048;-81
2023/08/10 01:45:30;;;;;;;6.70;3.28;;;13.50;86.90;;;;;;5092218;28;20040;-80
2023/08/10 01:48:20;;;;;;;5.57;3.92;;;13.50;86.90;;;;;;5092475;28;20040;-79
2023/08/10 01:50:50;;;;;;;5.97;3.22;;;13.50;87.00;;;;;;5092280;28;20507;-82
2023/08/10 01:53:18;;;;;;;11.02;3.80;;;13.50;87.00;;;;;;5092235;28;20044;-81
2023/08/10 01:55:44;;;;;;;6.13;3.78;;;13.50;87.10;;;;;;5075266;28;20079;-80
2023/08/10 01:58:10;;;;;;;7.47;4.07;;;13.50;87.40;;;;;;5092402;28;20052;-82
2023/08/10 02:00:37;;;;;;;7.63;3.50;;;13.50;87.10;;;;;;5058662;28;20105;-81
2023/08/10 02:03:06;;;;;;;6.47;3.28;;;13.50;87.20;;;;;;5075651;28;20105;-81
2023/08/10 02:05:33;;;;;;;9.48;4.07;;;13.50;87.10;;;;;;5074891;28;20097;-79
2023/08/10 02:07:59;;;;;;;3.95;3.10;;;13.50;87.20;;;;;;5058610;28;20074;-81
2023/08/10 02:10:25;;;;;;;7.30;3.70;;;13.50;87.30;;;;;;5091903;28;20107;-80
2023/08/10 02:12:50;;;;;;;6.75;3.67;;;13.50;87.20;;;;;;5075089;28;20040;-82
2023/08/10 02:15:16;;;;;;;7.47;3.35;;;13.50;87.40;;;;;;5091715;28;20146;-80
2023/08/10 02:17:42;;;;;;;6.50;3.53;;;13.40;87.40;;;;;;5058580;28;20040;-81
2023/08/10 02:20:12;;;;;;;4.90;3.45;;;13.40;87.50;;;;;;5058327;28;20484;-82
2023/08/10 02:22:41;;;;;;;5.93;3.50;;;13.40;87.60;;;;;;5075381;28;20488;-81
2023/08/10 02:25:07;;;;;;;10.55;3.72;;;13.30;87.60;;;;;;5091686;28;20130;-81
2023/08/10 02:27:33;;;;;;;7.82;3.33;;;13.40;87.80;;;;;;5074798;28;20051;-82
2023/08/10 02:29:58;;;;;;;6.13;3.30;;;13.40;87.90;;;;;;5057887;28;20052;-81
2023/08/10 02:32:24;;;;;;;8.07;3.72;;;13.30;87.90;;;;;;5091819;28;20174;-80
2023/08/10 02:34:50;;;;;;;5.05;3.72;;;13.40;88.10;;;;;;5096164;28;20487;-79
2023/08/10 02:37:16;;;;;;;6.65;3.80;;;13.40;88.20;;;;;;5078975;28;20051;-81
2023/08/10 02:39:41;;;;;;;8.60;3.92;;;13.50;88.20;;;;;;5095750;28;20048;-81
2023/08/10 02:42:07;;;;;;;10.05;4.10;;;13.50;88.10;;;;;;5062416;28;20040;-82
2023/08/10 02:44:33;;;;;;;6.00;3.80;;;13.50;88.20;;;;;;5095611;28;20396;-81
2023/08/10 02:46:59;;;;;;;6.75;4.18;;;13.50;88.70;;;;;;5062087;28;20032;-80
2023/08/10 02:49:24;;;;;;;7.50;3.80;;;13.50;88.40;;;;;;5062170;28;20036;-81
2023/08/10 02:51:50;;;;;;;6.95;4.05;;;13.50;88.50;;;;;;5095543;28;20044;-80
2023/08/10 02:54:16;;;;;;;9.40;4.28;;;13.50;88.70;;;;;;5078579;28;20078;-81
2023/08/10 02:56:41;;;;;;;8.18;4.07;;;13.50;89.30;;;;;;5078490;28;20151;-81
2023/08/10 02:59:07;;;;;;;8.57;3.88;;;13.50;88.90;;;;;;5095646;28;20043;-79
2023/08/10 03:01:33;;;;;;;9.55;3.95;;;13.50;88.60;;;;;;5095572;28;20480;-82
2023/08/10 03:03:58;;;;;;;7.10;4.03;;;13.50;88.80;;;;;;5078539;28;20047;-80
2023/08/10 03:06:24;;;;;;;9.40;4.22;;;13.50;88.70;;;;;;5078381;28;20128;-82
2023/08/10 03:08:50;;;;;;;11.95;4.10;;;13.50;88.90;;;;;;5045205;28;20036;-81
2023/08/10 03:11:17;;;;;;;6.88;4.40;;;13.50;88.50;;;;;;5078417;28;20043;-80
2023/08/10 03:13:42;;;;;;;8.65;3.85;;;13.50;88.60;;;;;;5095083;28;20047;-81
2023/08/10 03:16:09;;;;;;;8.80;4.03;;;13.50;88.50;;;;;;5061744;28;20036;-80
2023/08/10 03:18:34;;;;;;;6.88;3.47;;;13.50;88.90;;;;;;5078116;28;20044;-79
2023/08/10 03:21:00;;;;;;;8.48;4.40;;;13.50;89.10;;;;;;5095230;28;20404;-82
2023/08/10 03:23:26;;;;;;;8.82;4.13;;;13.50;89.10;;;;;;5078133;28;20036;-81
2023/08/10 03:25:52;;;;;;;8.40;4.15;;;13.50;89.10;;;;;;5077934;28;20040;-81
2023/08/10 03:28:18;;;;;;;9.10;3.88;;;13.50;89.00;;;;;;5061159;28;20172;-80
2023/08/10 03:30:44;;;;;;;7.72;4.63;;;13.50;89.50;;;;;;5077931;28;20047;-81
2023/08/10 03:33:09;;;;;;;7.68;4.40;;;13.50;89.00;;;;;;5077946;28;20039;-81
2023/08/10 03:35:35;;;;;;;9.07;4.22;;;13.50;88.80;;;;;;5094666;28;20036;-80
2023/08/10 03:38:01;;;;;;;8.93;4.50;;;13.50;89.00;;;;;;5061523;28;20127;-81
2023/08/10 03:40:26;;;;;;;6.78;3.88;;;13.50;89.10;;;;;;5078029;28;20044;-80
2023/08/10 03:42:52;;;;;;;7.03;4.63;;;13.50;89.00;;;;;;5094838;28;20484;-81
2023/08/10 03:45:18;;;;;;;8.57;4.05;;;13.60;89.10;;;;;;5093648;28;20062;-80
2023/08/10 03:47:43;;;;;;;6.78;4.93;;;13.60;89.10;;;;;;5077919;28;20051;-80
2023/08/10 03:50:10;;;;;;;8.90;4.95;;;13.60;89.40;;;;;;5094457;28;20498;-80
2023/08/10 03:52:36;;;;;;;6.80;4.65;;;13.60;89.10;;;;;;5094726;28;20044;-81
2023/08/10 03:55:02;;;;;;;8.00;4.32;;;13.70;89.00;;;;;;5094382;28;20036;-81
2023/08/10 03:57:28;;;;;;;7.35;4.70;;;13.70;88.90;;;;;;5077483;28;20065;-81
2023/08/10 03:59:54;;;;;;;7.88;5.20;;;13.70;89.00;;;;;;5094228;28;20070;-81
2023/08/10 04:02:20;;;;;;;8.63;5.47;;;13.70;89.20;;;;;;5060803;28;20059;-80
2023/08/10 04:04:45;;;;;;;9.90;5.32;;;13.80;89.30;;;;;;5093594;28;20545;-80
2023/08/10 04:07:12;;;;;;;7.15;5.18;;;13.80;89.30;;;;;;5059833;28;20032;-81
2023/08/10 04:09:39;;;;;;;9.38;5.57;;;13.80;89.40;;;;;;5076710;28;20484;-79
2023/08/10 04:12:05;;;;;;;7.28;5.10;;;13.80;89.30;;;;;;5093449;28;20079;-82
2023/08/10 04:14:31;;;;;;;6.70;4.57;;;13.90;89.30;;;;;;5043601;28;20083;-81
2023/08/10 04:16:57;;;;;;;7.47;5.22;;;13.90;89.20;;;;;;5060290;28;20047;-81
2023/08/10 04:19:23;;;;;;;8.43;5.32;;;13.90;89.00;;;;;;5093855;28;20131;-81
2023/08/10 04:21:49;;;;;;;8.77;5.28;;;13.90;88.90;;;;;;5077093;28;20044;-81
2023/08/10 04:24:15;;;;;;;8.82;4.95;;;14.00;89.20;;;;;;5093594;28;20040;-81
2023/08/10 04:26:40;;;;;;;8.10;5.20;;;14.00;89.20;;;;;;5093633;28;20080;-79
2023/08/10 04:29:06;;;;;;;6.10;4.93;;;14.00;89.20;;;;;;5076631;28;20052;-81
2023/08/10 04:31:32;;;;;;;7.88;5.72;;;14.00;89.30;;;;;;5076797;28;20123;-81
2023/08/10 04:33:58;;;;;;;9.13;5.47;;;14.10;89.20;;;;;;5093877;28;20365;-81
2023/08/10 04:36:23;;;;;;;6.78;5.07;;;14.10;89.20;;;;;;5093371;28;20088;-81
2023/08/10 04:38:51;;;;;;;6.32;4.80;;;14.10;89.30;;;;;;5060038;28;20032;-81
2023/08/10 04:41:17;;;;;;;6.40;5.43;;;14.20;89.30;;;;;;5076839;28;20204;-80
2023/08/10 04:43:43;;;;;;;5.85;5.00;;;14.20;89.20;;;;;;5076874;28;20083;-81
2023/08/10 04:46:09;;;;;;;7.45;5.30;;;14.20;89.40;;;;;;5093255;28;20036;-82
2023/08/10 04:48:35;;;;;;;9.10;5.43;;;14.30;89.60;;;;;;5076547;28;20051;-80
2023/08/10 04:51:00;;;;;;;7.15;5.70;;;14.30;89.60;;;;;;5076416;28;20140;-81
2023/08/10 04:53:26;;;;;;;7.28;5.30;;;14.30;89.50;;;;;;5093206;28;20040;-81
2023/08/10 04:55:52;;;;;;;7.65;5.45;;;14.30;89.60;;;;;;5092516;28;20134;-81
2023/08/10 04:58:18;;;;;;;8.98;5.28;;;14.30;89.60;;;;;;5059330;28;20127;-81
2023/08/10 05:00:43;;;;;;;9.63;5.43;;;14.40;89.60;;;;;;5076495;28;20039;-81
2023/08/10 05:03:09;;;;;;;7.38;5.10;;;14.40;89.60;;;;;;5076528;28;20040;-80
2023/08/10 05:05:39;;;;;;;6.47;5.05;;;14.50;89.70;;;;;;5092843;28;20515;-79
2023/08/10 05:08:05;;;;;;;8.57;5.30;;;14.50;89.70;;;;;;5059578;28;20124;-81
2023/08/10 05:10:32;;;;;;;10.40;5.32;;;14.50;89.70;;;;;;5092843;28;20068;-82
2023/08/10 05:12:57;;;;;;;7.70;5.60;;;14.50;89.60;;;;;;5059451;28;20488;-81
2023/08/10 05:15:23;;;;;;;8.88;5.30;;;14.50;89.50;;;;;;5059221;28;20044;-81
2023/08/10 05:17:49;;;;;;;9.95;5.70;;;14.50;89.50;;;;;;5076150;28;20050;-81
2023/08/10 05:20:15;;;;;;;12.85;5.80;;;14.50;89.40;;;;;;5092722;28;20040;-80
2023/08/10 05:22:42;;;;;;;9.70;5.47;;;14.50;89.50;;;;;;5075957;28;20036;-81
2023/08/10 05:25:09;;;;;;;7.45;5.13;;;14.60;89.50;;;;;;5092649;28;20047;-81
2023/08/10 05:27:38;;;;;;;8.65;5.15;;;14.60;89.40;;;;;;5092555;28;20036;-80
2023/08/10 05:30:11;;;;;;;8.35;5.35;;;14.60;89.40;;;;;;5092441;28;20400;-81
2023/08/10 05:32:39;;;;;;;6.03;5.10;;;14.60;89.30;;;;;;5076084;28;20032;-82
2023/08/10 05:35:06;;;;;;;12.98;5.47;;;14.70;89.20;;;;;;5059457;28;20127;-80
2023/08/10 05:37:33;;;;;;;8.90;5.10;;;14.80;89.10;;;;;;5075667;28;20395;-81
2023/08/10 05:40:00;;;;;;;10.23;5.13;;;14.80;89.00;;;;;;5092379;28;20043;-80
2023/08/10 05:42:26;;;;;;;10.02;4.70;;;14.80;88.90;;;;;;5059099;28;20392;-81
2023/08/10 05:44:52;;;;;;;5.20;3.67;;;14.90;88.90;;;;;;5075527;28;20044;-81
2023/08/10 05:47:18;;;;;;;10.90;5.15;;;14.90;88.90;;;;;;5092526;28;20492;-81
2023/08/10 05:49:44;;;;;;;10.55;4.45;;;15.00;88.70;;;;;;5092232;28;20484;-80
2023/08/10 05:52:09;;;;;;;5.93;4.30;;;15.00;88.40;;;;;;5042055;28;20112;-80
2023/08/10 05:54:35;;;;;;;9.60;4.38;;;15.00;88.30;;;;;;5092149;28;20090;-81
2023/08/10 05:57:01;;;;;;;8.52;4.20;;;15.00;88.30;;;;;;5092248;28;20066;-81
2023/08/10 05:59:27;;;;;;;8.38;4.13;;;15.00;88.40;;;;;;5058620;28;20404;-80
2023/08/10 06:01:53;;;;;;;9.63;4.68;;;15.00;88.40;;;;;;5092375;28;20120;-81
2023/08/10 06:04:19;;;;;;;6.47;4.30;;;15.00;88.40;;;;;;5075405;28;20048;-81
2023/08/10 06:06:46;;;;;;;5.93;3.85;;;15.00;88.30;;;;;;5075354;28;20036;-80
2023/08/10 06:09:12;;;;;;;5.88;4.18;;;15.20;88.50;;;;;;5075212;28;20048;-81
2023/08/10 06:11:39;;;;;;;6.45;3.15;;;15.20;88.40;;;;;;5092212;28;20043;-81
2023/08/10 06:14:05;;;;;;;8.07;4.40;;;15.30;88.20;;;;;;5075065;28;20072;-81
2023/08/10 06:16:31;;;;;;;5.93;3.55;;;15.30;88.10;;;;;;5075334;28;20082;-81
2023/08/10 06:18:56;;;;;;;5.57;3.55;;;15.40;88.10;;;;;;5091723;28;20088;-82
2023/08/10 06:21:22;;;;;;;7.72;4.45;;;15.50;87.90;;;;;;5075275;28;20032;-81
2023/08/10 06:23:48;;;;;;;9.48;3.35;;;15.50;87.60;;;;;;5075171;28;20496;-80
2023/08/10 06:26:14;;;;;;;8.07;3.13;;;15.70;87.80;;;;;;5074888;28;20039;-81
2023/08/10 06:28:39;;;;;;;7.65;3.08;;;15.70;87.70;;;;;;5075021;28;20145;-80
2023/08/10 06:31:11;;;;;;;7.57;2.97;;;15.80;87.40;;;;;;5058349;28;20581;-80
2023/08/10 06:33:37;;;;;;;6.43;2.80;;;15.90;87.20;;;;;;5059115;28;20032;-79
2023/08/10 06:36:06;;;;;;;9.27;3.10;;;15.90;87.10;;;;;;5075116;28;20469;-80
2023/08/10 06:38:35;;;;;;;5.75;2.70;;;16.00;87.00;;;;;;5091874;28;20466;-80
2023/08/10 06:41:01;;;;;;;5.55;2.72;;;16.00;86.90;;;;;;5042171;28;20400;-80
2023/08/10 06:43:27;;;;;;;3.25;2.00;;;16.20;86.60;;;;;;5091600;28;20130;-80
2023/08/10 06:45:53;;;;;;;4.40;1.58;;;16.20;85.90;;;;;;5091522;28;20051;-80
2023/08/10 06:48:19;;;;;;;5.10;2.00;;;16.10;85.10;;;;;;5091499;28;20400;-82
2023/08/10 06:50:44;;;;;;;4.72;1.70;;;16.20;84.40;;;;;;5058035;28;20036;-81
2023/08/10 06:53:11;;;;;;;4.57;2.10;;;16.20;84.90;;;;;;5091246;28;20039;-81
2023/08/10 06:55:38;;;;;;;5.47;2.15;;;16.30;84.70;;;;;;5074575;28;20067;-80
2023/08/10 06:58:04;;;;;;;4.70;2.50;;;16.30;84.60;;;;;;5058021;28;20517;-81
2023/08/10 07:00:31;;;;;;;3.45;1.73;;;16.40;84.20;;;;;;5057655;28;20439;-80
2023/08/10 07:02:56;;;;;;;4.57;1.75;;;16.50;84.50;;;;;;5091214;28;20114;-82
2023/08/10 07:05:26;;;;;;;6.18;1.85;;;16.50;83.40;;;;;;5074122;28;20580;-82
2023/08/10 07:07:52;;;;;;;2.67;1.52;;;16.60;83.40;;;;;;5057897;28;20567;-80
2023/08/10 07:10:18;;;;;;;4.28;1.35;;;16.70;83.60;;;;;;5090704;28;20089;-81
2023/08/10 07:12:44;;;;;;;6.88;1.42;;;16.70;83.30;;;;;;5090761;28;20044;-82
2023/08/10 07:15:10;;;;;;;3.20;1.33;;;16.70;83.30;;;;;;5057347;28;20047;-82
2023/08/10 07:17:36;;;;;;;7.10;2.00;;;16.70;82.30;;;;;;5090493;28;20090;-81
2023/08/10 07:20:06;;;;;;;3.55;1.27;;;16.80;82.20;;;;;;5074630;28;20032;-80
2023/08/10 07:22:32;;;;;;;8.20;1.60;;;16.90;82.40;;;;;;5094653;28;20074;-80
2023/08/10 07:25:05;;;;;;;8.60;1.40;;;16.80;82.20;;;;;;5078213;28;20465;-80
2023/08/10 07:27:35;;;;;;;8.63;2.08;;;16.90;81.70;;;;;;5079099;28;20044;-79
2023/08/10 07:30:03;;;;;;;3.40;1.20;;;16.90;81.70;;;;;;5094589;28;20060;-80
2023/08/10 07:32:29;;;;;;;4.07;1.50;;;16.80;81.10;;;;;;5078216;28;20047;-81
2023/08/10 07:34:55;;;;;;;8.55;2.10;;;16.90;81.40;;;;;;5094724;28;20048;-80
2023/08/10 07:37:20;;;;;;;3.28;1.30;;;16.90;81.10;;;;;;5077731;28;20173;-81
2023/08/10 07:39:47;;;;;;;8.48;1.13;;;17.00;80.60;;;;;;5094868;28;20384;-81
2023/08/10 07:42:13;;;;;;;4.57;1.70;;;17.00;80.30;;;;;;5077905;28;20047;-81
2023/08/10 07:44:39;;;;;;;4.63;1.35;;;17.00;80.40;;;;;;5077596;28;20051;-80
2023/08/10 07:47:05;;;;;;;5.07;1.27;;;17.10;80.50;;;;;;5094447;28;20388;-81
2023/08/10 07:49:31;;;;;;;6.15;1.50;;;17.00;79.90;;;;;;5094359;28;20040;-81
2023/08/10 07:51:58;;;;;;;6.70;1.90;;;17.10;80.40;;;;;;5077768;28;20127;-80
2023/08/10 07:54:25;;;;;;;3.15;1.30;;;17.10;80.30;;;;;;5077832;28;20392;-80
2023/08/10 07:56:51;;;;;;;6.40;2.22;;;17.20;80.70;;;;;;5094481;28;20117;-81
2023/08/10 07:59:17;;;;;;;7.32;2.50;;;17.30;80.70;;;;;;5060505;28;20484;-82
2023/08/10 08:01:43;;;;;;;4.68;1.70;;;17.30;80.20;;;;;;5094539;28;20127;-82
2023/08/10 08:04:09;;;;;;;6.95;1.75;;;17.30;80.60;;;;;;5094209;28;20044;-82
2023/08/10 08:06:38;;;;;;;3.95;1.73;;;17.30;80.20;;;;;;5060496;28;20120;-83
2023/08/10 08:09:07;;;;;;;9.50;2.25;;;17.30;80.30;;;;;;5077291;28;20476;-82
2023/08/10 08:11:34;;;;;;;5.65;1.40;;;17.40;80.30;;;;;;5057829;28;20040;-81
2023/08/10 08:14:01;;;;;;;4.50;1.48;;;17.40;80.10;;;;;;5094345;28;20470;-80
2023/08/10 08:16:27;;;;;;;6.63;1.40;;;17.40;80.10;;;;;;5093895;28;20044;-81
2023/08/10 08:18:55;;;;;;;5.13;1.42;;;17.40;79.60;;;;;;5094164;28;20446;-82
2023/08/10 08:21:26;;;;;;;5.20;1.77;;;17.50;79.70;;;;;;5060703;28;20039;-81
2023/08/10 08:23:54;;;;;;;3.22;1.35;;;17.40;79.40;;;;;;5077199;28;20463;-82
2023/08/10 08:26:23;;;;;;;3.83;1.38;;;17.50;79.40;;;;;;5093665;28;20171;-82
2023/08/10 08:28:50;;;;;;;6.30;1.55;;;17.50;79.70;;;;;;5093763;28;20056;-81
2023/08/10 08:31:16;;;;;;;5.68;1.95;;;17.50;79.60;;;;;;5093433;28;20044;-82
2023/08/10 08:33:42;;;;;;;8.05;2.20;;;17.50;79.80;;;;;;5076738;28;20032;-82
2023/08/10 08:36:09;;;;;;;3.53;1.55;;;17.50;79.60;;;;;;5076615;28;20044;-82
2023/08/10 08:38:36;;;;;;;3.17;1.50;;;17.60;79.50;;;;;;5093807;28;20043;-81
2023/08/10 08:41:07;;;;;;;6.07;1.60;;;17.50;79.00;;;;;;5076582;28;20044;-83
2023/08/10 08:43:34;;;;;;;3.90;1.80;;;17.70;79.40;;;;;;5093453;28;20040;-82
2023/08/10 08:46:00;;;;;;;6.05;1.98;;;17.70;79.30;;;;;;5093292;28;20090;-81
2023/08/10 08:48:27;;;;;;;4.07;1.50;;;17.70;79.20;;;;;;5093417;28;20548;-81
2023/08/10 08:50:54;;;;;;;4.65;1.80;;;17.70;79.30;;;;;;5093302;28;20442;-82
2023/08/10 08:53:20;;;;;;;5.45;2.00;;;17.70;79.10;;;;;;5093465;28;20043;-82
2023/08/10 08:55:46;;;;;;;3.40;1.48;;;17.80;79.10;;;;;;5059558;28;20047;-82
2023/08/10 08:58:16;;;;;;;8.05;2.03;;;17.70;79.10;;;;;;5093179;28;20035;-80
2023/08/10 09:00:50;;;;;;;3.97;1.50;;;17.70;78.40;;;;;;5059699;28;20093;-82
2023/08/10 09:03:16;;;;;;;2.75;1.50;;;17.70;79.00;;;;;;5059986;28;20036;-81
2023/08/10 09:05:45;;;;;;;8.20;1.80;;;17.70;78.60;;;;;;5075954;28;20052;-82
2023/08/10 09:08:14;;;;;;;6.03;1.60;;;17.70;79.00;;;;;;5090475;28;20047;-82
2023/08/10 09:10:40;;;;;;;6.10;2.28;;;17.80;79.00;;;;;;5075331;28;20046;-82
2023/08/10 09:13:18;;;;;;;5.65;1.60;;;17.80;78.90;;;;;;5059228;28;20278;-82
2023/08/10 09:15:44;;;;;;;9.40;1.95;;;17.80;78.90;;;;;;5076223;28;20044;-83
2023/08/10 09:18:10;;;;;;;6.20;2.05;;;18.00;79.00;;;;;;5092814;28;20090;-82
2023/08/10 09:20:36;;;;;;;4.57;1.85;;;18.00;78.90;;;;;;5092699;28;20036;-80
2023/08/10 09:23:03;;;;;;;6.82;2.65;;;18.00;78.90;;;;;;5075839;28;20415;-80
2023/08/10 09:25:39;;;;;;;5.07;2.08;;;18.00;78.90;;;;;;5075640;28;20047;-81
2023/08/10 09:28:09;;;;;;;5.60;1.60;;;18.00;78.50;;;;;;5076165;28;20036;-82
2023/08/10 09:30:35;;;;;;;5.00;2.00;;;18.10;78.80;;;;;;5075345;28;20533;-81
2023/08/10 09:33:01;;;;;;;6.43;1.88;;;18.10;78.50;;;;;;5092729;28;20051;-80
2023/08/10 09:35:29;;;;;;;10.95;2.03;;;18.20;78.60;;;;;;5075632;28;20043;-81
2023/08/10 09:38:02;;;;;;;7.13;2.10;;;18.40;78.30;;;;;;5092444;28;20484;-81
2023/08/10 09:40:28;;;;;;;3.20;1.60;;;18.50;78.30;;;;;;5075822;28;20521;-82
2023/08/10 09:42:54;;;;;;;5.13;1.77;;;18.60;77.80;;;;;;5091644;28;20047;-82
2023/08/10 09:45:20;;;;;;;3.33;1.42;;;18.70;77.70;;;;;;5075392;28;20066;-82
2023/08/10 09:47:46;;;;;;;5.05;1.42;;;18.90;76.90;;;;;;5092247;28;20047;-82
2023/08/10 09:50:16;;;;;;;3.22;1.38;;;19.00;75.30;;;;;;5075396;28;20043;-81
2023/08/10 09:52:42;;;;;;;3.08;1.65;;;19.00;75.20;;;;;;5075436;28;20036;-80
2023/08/10 09:55:09;;;;;;;5.63;2.15;;;19.00;74.60;;;;;;5092150;28;20485;-82
2023/08/10 09:57:40;;;;;;;4.13;1.52;;;19.10;74.70;;;;;;5092373;28;20083;-80
2023/08/10 10:00:14;;;;;;;3.13;1.40;;;19.10;72.90;;;;;;5092077;28;20040;-80
2023/08/10 10:02:40;;;;;;;3.88;1.38;;;19.20;72.70;;;;;;5092384;28;20484;-82
2023/08/10 10:05:06;;;;;;;4.40;2.15;;;19.20;72.50;;;;;;5058765;28;20040;-80
2023/08/10 10:07:33;;;;;;;6.82;2.10;;;19.30;72.10;;;;;;5075003;28;20047;-83
2023/08/10 10:09:59;;;;;;;5.45;2.60;;;19.40;72.20;;;;;;5075440;28;20374;-81
2023/08/10 10:12:26;;;;;;;4.78;2.40;;;19.50;72.20;;;;;;5075452;28;20071;-81
2023/08/10 10:14:52;;;;;;;5.35;2.15;;;19.60;72.10;;;;;;5075068;28;20454;-80
2023/08/10 10:17:20;;;;;;;6.07;2.42;;;19.50;71.20;;;;;;5074981;28;20044;-79
2023/08/10 10:19:49;;;;;;;4.93;2.00;;;19.50;70.90;;;;;;5092274;28;20040;-80
2023/08/10 10:22:17;;;;;;;5.13;2.10;;;19.50;71.70;;;;;;5074486;28;20124;-81
2023/08/10 10:24:43;;;;;;;4.28;2.05;;;19.50;71.50;;;;;;5091473;28;20076;-82
2023/08/10 10:27:11;;;;;;;3.80;2.00;;;19.40;71.30;;;;;;5074817;28;20079;-81
2023/08/10 10:29:51;;;;;;;4.00;1.70;;;19.40;71.50;;;;;;5058368;28;20074;-82
2023/08/10 10:32:21;;;;;;;4.53;1.88;;;19.50;71.00;;;;;;5091815;28;20476;-81
2023/08/10 10:34:50;;;;;;;4.00;1.70;;;19.50;70.80;;;;;;5075164;28;20040;-81
2023/08/10 10:37:37;;;;;;;4.22;2.20;;;19.60;70.90;;;;;;5075108;28;20438;-82
2023/08/10 10:40:22;;;;;;;3.13;1.75;;;19.60;71.10;;;;;;5091856;28;20040;-81
2023/08/10 10:43:03;;;;;;;4.50;2.13;;;19.60;70.60;;;;;;5091930;28;20052;-80
2023/08/10 10:45:38;;;;;;;9.00;2.38;;;19.60;71.40;;;;;;5091631;28;20457;-81
2023/08/10 10:48:05;;;;;;;5.70;1.92;;;19.50;71.30;;;;;;5092378;28;20047;-81
2023/08/10 10:50:32;;;;;;;5.63;2.72;;;19.60;71.80;;;;;;5074619;28;20510;-81
2023/08/10 10:53:03;;;;;;;6.32;2.40;;;19.60;71.70;;;;;;5075176;28;20118;-81
2023/08/10 10:55:41;;;;;;;7.22;3.08;;;19.60;71.10;;;;;;5094318;28;20040;-82
2023/08/10 10:58:08;;;;;;;4.90;2.40;;;19.50;72.70;;;;;;5099628;28;20082;-81
2023/08/10 11:00:36;;;;;;;7.95;3.20;;;19.60;72.70;;;;;;5084056;28;20036;-82
2023/08/10 11:03:06;;;;;;;6.05;3.17;;;19.50;72.90;;;;;;5069182;28;20040;-81
2023/08/10 11:05:33;;;;;;;5.53;2.80;;;19.50;73.10;;;;;;5086473;28;20041;-82
2023/08/10 11:08:06;;;;;;;4.90;3.03;;;19.50;73.50;;;;;;5098738;28;20461;-82
2023/08/10 11:10:36;;;;;;;7.17;3.60;;;19.40;73.90;;;;;;5079283;28;20483;-82
2023/08/10 11:13:11;;;;;;;6.50;3.45;;;19.30;74.60;;;;;;5079546;28;20036;-82
2023/08/10 11:15:37;;;;;;;5.95;3.80;;;19.30;75.10;;;;;;5080873;28;20051;-82
2023/08/10 11:18:12;;;;;;;9.55;4.07;;;19.30;75.10;;;;;;5081602;28;20036;-80
2023/08/10 11:20:45;;;;;;;8.00;3.50;;;19.30;75.30;;;;;;5081878;28;20515;-80
2023/08/10 11:23:12;;;;;;;6.85;3.85;;;19.30;75.40;;;;;;5084396;28;20049;-81
2023/08/10 11:25:48;;;;;;;4.63;3.72;;;19.30;75.60;;;;;;5083294;28;20040;-80
2023/08/10 11:28:15;;;;;;;5.75;4.63;;;19.30;76.00;;;;;;5079921;28;20088;-83
2023/08/10 11:30:41;;;;;;;4.80;3.28;;;19.30;75.90;;;;;;5063535;28;20060;-81
2023/08/10 11:33:07;;;;;;;9.85;4.85;;;19.30;76.00;;;;;;5079969;28;20040;-81
2023/08/10 11:35:32;;;;;;;5.95;3.90;;;19.20;76.60;;;;;;5079685;28;20075;-82
2023/08/10 11:37:58;;;;;;;8.93;4.65;;;19.10;77.00;;;;;;5078219;28;20079;-81
2023/08/10 11:40:24;;;;;;;7.70;5.53;;;19.10;77.30;;;;;;5078248;28;20489;-81
2023/08/10 11:43:03;;;;;;;8.55;5.05;;;19.20;77.20;;;;;;5078559;28;20507;-81
2023/08/10 11:45:30;;;;;;;7.20;4.88;;;19.10;78.40;;;;;;5077932;28;20369;-82
2023/08/10 11:48:00;;;;;;;8.32;5.28;;;19.00;78.50;;;;;;5094725;28;20123;-82
2023/08/10 11:50:31;;;;;;;6.28;5.00;;;19.10;78.30;;;;;;5094598;28;20092;-81
2023/08/10 11:53:06;;;;;;;10.63;4.85;;;19.10;79.10;;;;;;5094858;28;20040;-83
2023/08/10 11:55:33;;;;;;;8.52;4.53;;;19.10;78.80;;;;;;5077493;28;20043;-82
2023/08/10 11:58:00;;;;;;;4.72;3.97;;;19.10;79.30;;;;;;5094654;28;20116;-83
2023/08/10 12:00:33;;;;;;;7.82;5.03;;;19.10;79.70;;;;;;5077825;28;20101;-81
2023/08/10 12:03:19;;;;;;;6.18;5.30;;;19.20;79.50;;;;;;5094353;28;20046;-81
2023/08/10 12:05:47;;;;;;;6.78;4.45;;;19.20;79.60;;;;;;5076495;28;20136;-82
2023/08/10 12:08:15;;;;;;;6.43;4.50;;;19.30;79.30;;;;;;5077316;28;20043;-81
2023/08/10 12:10:50;;;;;;;8.10;5.40;;;19.40;79.00;;;;;;5094274;28;20044;-82
2023/08/10 12:13:18;;;;;;;7.25;4.70;;;19.50;78.90;;;;;;5091819;28;20051;-79
2023/08/10 12:15:50;;;;;;;9.25;4.68;;;19.60;78.70;;;;;;5077286;28;20152;-81
2023/08/10 12:18:20;;;;;;;7.07;4.50;;;19.70;78.40;;;;;;5093927;28;20040;-80
2023/08/10 12:20:47;;;;;;;7.45;5.03;;;19.80;78.30;;;;;;5093985;28;20091;-80
2023/08/10 12:23:14;;;;;;;9.30;4.70;;;19.90;77.90;;;;;;5079036;28;20456;-80
2023/08/10 12:25:40;;;;;;;7.22;4.80;;;19.90;77.70;;;;;;5065583;28;20044;-80
2023/08/10 12:28:07;;;;;;;6.13;4.18;;;19.90;77.60;;;;;;5069343;28;20071;-81
2023/08/10 12:30:34;;;;;;;7.65;4.80;;;19.90;77.80;;;;;;5069062;28;20056;-79
2023/08/10 12:33:00;;;;;;;5.43;4.43;;;20.00;77.30;;;;;;5084693;28;20089;-81
2023/08/10 12:35:26;;;;;;;7.20;4.72;;;20.00;77.20;;;;;;5052654;28;20125;-80
2023/08/10 12:37:52;;;;;;;7.78;5.15;;;20.00;77.70;;;;;;5066044;28;20052;-80
2023/08/10 12:40:18;;;;;;;7.18;4.47;;;20.10;77.40;;;;;;5051468;28;20048;-82
2023/08/10 12:42:44;;;;;;;10.80;5.47;;;20.30;77.40;;;;;;5068146;28;20040;-78
2023/08/10 12:45:11;;;;;;;8.57;5.57;;;20.40;77.10;;;;;;5084862;28;20048;-82
2023/08/10 12:47:41;;;;;;;9.50;5.97;;;20.40;76.70;;;;;;5086727;28;20043;-83